Weather at Iaşi Airport

Public forecast

Using degrees Celsius for public forecast. Weather courtesy of forecast.io.

Current aviation weather report (METAR) for Iaşi Airport

2024/05/28 05:00 (retrieved 12 minutes ago)

LRIA 280500Z 01006KT 9999 -SHRA FEW035CB 15/13 Q1017

Closest aviation forecast (TAF) to Iaşi Airport

Forecast is more than 6 hours old.

Closest forecast is Sliač Airport, 352.4 nm (652.6 km) WNW.

2024/05/27 18:24 (retrieved 11 hours ago)

TAF TAF LZSL 271630Z 2718/2806 VRB03KT CAVOK TEMPO 2718/2722 9999 SCT045